sensor_id;sensor_type;location;lat;lon;timestamp;temperature;humidity
32694;DHT22;19084;44.716;10.218;2022-10-22T00:00:52;15.70;99.90
32694;DHT22;19084;44.716;10.218;2022-10-22T00:03:24;15.70;99.90
32694;DHT22;19084;44.716;10.218;2022-10-22T00:05:57;15.70;99.90
32694;DHT22;19084;44.716;10.218;2022-10-22T00:08:30;15.70;99.90
32694;DHT22;19084;44.716;10.218;2022-10-22T00:11:13;15.70;99.90
32694;DHT22;19084;44.716;10.218;2022-10-22T00:13:46;15.60;99.90
32694;DHT22;19084;44.716;10.218;2022-10-22T00:16:19;15.60;99.90
32694;DHT22;19084;44.716;10.218;2022-10-22T00:18:51;15.60;99.90
32694;DHT22;19084;44.716;10.218;2022-10-22T00:21:24;15.70;99.90
32694;DHT22;19084;44.716;10.218;2022-10-22T00:24:00;15.70;99.90
32694;DHT22;19084;44.716;10.218;2022-10-22T00:26:33;15.70;99.90
32694;DHT22;19084;44.716;10.218;2022-10-22T00:29:05;15.70;99.90
32694;DHT22;19084;44.716;10.218;2022-10-22T00:31:38;15.70;99.90
32694;DHT22;19084;44.716;10.218;2022-10-22T00:34:10;15.80;99.90
32694;DHT22;19084;44.716;10.218;2022-10-22T00:36:43;15.80;99.90
32694;DHT22;19084;44.716;10.218;2022-10-22T00:39:17;15.80;99.90
32694;DHT22;19084;44.716;10.218;2022-10-22T00:41:52;15.80;99.90
32694;DHT22;19084;44.716;10.218;2022-10-22T00:47:33;15.80;99.90
32694;DHT22;19084;44.716;10.218;2022-10-22T00:50:11;15.70;99.90
32694;DHT22;19084;44.716;10.218;2022-10-22T00:52:44;15.70;99.90
32694;DHT22;19084;44.716;10.218;2022-10-22T00:55:20;15.70;99.90
32694;DHT22;19084;44.716;10.218;2022-10-22T00:57:55;15.70;99.90
32694;DHT22;19084;44.716;10.218;2022-10-22T01:00:28;15.70;99.90
32694;DHT22;19084;44.716;10.218;2022-10-22T01:03:01;15.70;99.90
32694;DHT22;19084;44.716;10.218;2022-10-22T01:05:42;15.70;99.90
32694;DHT22;19084;44.716;10.218;2022-10-22T01:08:25;15.70;99.90
32694;DHT22;19084;44.716;10.218;2022-10-22T01:16:53;15.70;99.90
32694;DHT22;19084;44.716;10.218;2022-10-22T01:28:17;15.70;99.90
32694;DHT22;19084;44.716;10.218;2022-10-22T01:30:55;15.60;99.90
32694;DHT22;19084;44.716;10.218;2022-10-22T01:33:30;15.60;99.90
32694;DHT22;19084;44.716;10.218;2022-10-22T01:36:04;15.70;99.90
32694;DHT22;19084;44.716;10.218;2022-10-22T01:38:37;15.70;99.90
32694;DHT22;19084;44.716;10.218;2022-10-22T01:41:10;15.60;99.90
32694;DHT22;19084;44.716;10.218;2022-10-22T01:43:42;15.60;99.90
32694;DHT22;19084;44.716;10.218;2022-10-22T01:46:16;15.70;99.90
32694;DHT22;19084;44.716;10.218;2022-10-22T01:49:12;15.60;99.90
32694;DHT22;19084;44.716;10.218;2022-10-22T01:54:51;15.60;99.90
32694;DHT22;19084;44.716;10.218;2022-10-22T01:57:42;15.50;99.90
32694;DHT22;19084;44.716;10.218;2022-10-22T02:00:16;15.50;99.90
32694;DHT22;19084;44.716;10.218;2022-10-22T02:02:55;15.50;99.90
32694;DHT22;19084;44.716;10.218;2022-10-22T02:05:38;15.50;99.90
32694;DHT22;19084;44.716;10.218;2022-10-22T02:08:16;15.60;99.90
32694;DHT22;19084;44.716;10.218;2022-10-22T02:10:50;15.60;99.90
32694;DHT22;19084;44.716;10.218;2022-10-22T02:13:27;15.60;99.90
32694;DHT22;19084;44.716;10.218;2022-10-22T02:16:03;15.50;99.90
32694;DHT22;19084;44.716;10.218;2022-10-22T02:18:39;15.60;99.90
32694;DHT22;19084;44.716;10.218;2022-10-22T02:21:15;15.60;99.90
32694;DHT22;19084;44.716;10.218;2022-10-22T02:23:48;15.60;99.90
32694;DHT22;19084;44.716;10.218;2022-10-22T02:26:30;15.60;99.90
32694;DHT22;19084;44.716;10.218;2022-10-22T02:29:18;15.60;99.90
32694;DHT22;19084;44.716;10.218;2022-10-22T02:31:52;15.60;99.90
32694;DHT22;19084;44.716;10.218;2022-10-22T02:34:27;15.60;99.90
32694;DHT22;19084;44.716;10.218;2022-10-22T02:37:02;15.60;99.90
32694;DHT22;19084;44.716;10.218;2022-10-22T02:39:35;15.60;99.90
32694;DHT22;19084;44.716;10.218;2022-10-22T02:42:09;15.60;99.90
32694;DHT22;19084;44.716;10.218;2022-10-22T02:44:43;15.60;99.90
32694;DHT22;19084;44.716;10.218;2022-10-22T02:47:15;15.60;99.90
32694;DHT22;19084;44.716;10.218;2022-10-22T02:49:48;15.60;99.90
32694;DHT22;19084;44.716;10.218;2022-10-22T02:52:20;15.60;99.90
32694;DHT22;19084;44.716;10.218;2022-10-22T02:54:53;15.60;99.90
32694;DHT22;19084;44.716;10.218;2022-10-22T02:57:25;15.50;99.90
32694;DHT22;19084;44.716;10.218;2022-10-22T02:59:58;15.50;99.90
32694;DHT22;19084;44.716;10.218;2022-10-22T03:02:31;15.50;99.90
32694;DHT22;19084;44.716;10.218;2022-10-22T03:05:05;15.50;99.90
32694;DHT22;19084;44.716;10.218;2022-10-22T03:07:38;15.50;99.90
32694;DHT22;19084;44.716;10.218;2022-10-22T03:10:10;15.50;99.90
32694;DHT22;19084;44.716;10.218;2022-10-22T03:12:43;15.50;99.90
32694;DHT22;19084;44.716;10.218;2022-10-22T03:15:16;15.50;99.90
32694;DHT22;19084;44.716;10.218;2022-10-22T03:17:48;15.50;99.90
32694;DHT22;19084;44.716;10.218;2022-10-22T03:20:21;15.40;99.90
32694;DHT22;19084;44.716;10.218;2022-10-22T03:22:54;15.50;99.90
32694;DHT22;19084;44.716;10.218;2022-10-22T03:25:28;15.50;99.90
32694;DHT22;19084;44.716;10.218;2022-10-22T03:28:08;15.50;99.90
32694;DHT22;19084;44.716;10.218;2022-10-22T03:30:42;15.50;99.90
32694;DHT22;19084;44.716;10.218;2022-10-22T03:33:14;15.50;99.90
32694;DHT22;19084;44.716;10.218;2022-10-22T03:35:47;15.50;99.90
32694;DHT22;19084;44.716;10.218;2022-10-22T03:38:19;15.50;99.90
32694;DHT22;19084;44.716;10.218;2022-10-22T03:40:52;15.50;99.90
32694;DHT22;19084;44.716;10.218;2022-10-22T03:43:24;15.50;99.90
32694;DHT22;19084;44.716;10.218;2022-10-22T03:45:57;15.50;99.90
32694;DHT22;19084;44.716;10.218;2022-10-22T03:48:30;15.50;99.90
32694;DHT22;19084;44.716;10.218;2022-10-22T03:51:03;15.50;99.90
32694;DHT22;19084;44.716;10.218;2022-10-22T03:53:35;15.50;99.90
32694;DHT22;19084;44.716;10.218;2022-10-22T03:56:09;15.50;99.90
32694;DHT22;19084;44.716;10.218;2022-10-22T03:58:42;15.50;99.90
32694;DHT22;19084;44.716;10.218;2022-10-22T04:01:14;15.40;99.90
32694;DHT22;19084;44.716;10.218;2022-10-22T04:03:47;15.40;99.90
32694;DHT22;19084;44.716;10.218;2022-10-22T04:06:19;15.40;99.90
32694;DHT22;19084;44.716;10.218;2022-10-22T04:08:52;15.40;99.90
32694;DHT22;19084;44.716;10.218;2022-10-22T04:11:24;15.40;99.90
32694;DHT22;19084;44.716;10.218;2022-10-22T04:13:57;15.40;99.90
32694;DHT22;19084;44.716;10.218;2022-10-22T04:16:29;15.40;99.90
32694;DHT22;19084;44.716;10.218;2022-10-22T04:19:03;15.50;99.90
32694;DHT22;19084;44.716;10.218;2022-10-22T04:21:36;15.50;99.90
32694;DHT22;19084;44.716;10.218;2022-10-22T04:24:08;15.50;99.90
32694;DHT22;19084;44.716;10.218;2022-10-22T04:26:41;15.50;99.90
32694;DHT22;19084;44.716;10.218;2022-10-22T04:29:14;15.50;99.90
32694;DHT22;19084;44.716;10.218;2022-10-22T04:31:47;15.50;99.90
32694;DHT22;19084;44.716;10.218;2022-10-22T04:34:20;15.50;99.90
32694;DHT22;19084;44.716;10.218;2022-10-22T04:36:53;15.60;99.90
32694;DHT22;19084;44.716;10.218;2022-10-22T04:39:25;15.60;99.90
32694;DHT22;19084;44.716;10.218;2022-10-22T04:41:58;15.60;99.90
32694;DHT22;19084;44.716;10.218;2022-10-22T04:44:31;15.60;99.90
32694;DHT22;19084;44.716;10.218;2022-10-22T04:47:03;15.60;99.90
32694;DHT22;19084;44.716;10.218;2022-10-22T04:49:36;15.60;99.90
32694;DHT22;19084;44.716;10.218;2022-10-22T04:52:08;15.60;99.90
32694;DHT22;19084;44.716;10.218;2022-10-22T04:54:41;15.60;99.90
32694;DHT22;19084;44.716;10.218;2022-10-22T04:57:13;15.60;99.90
32694;DHT22;19084;44.716;10.218;2022-10-22T04:59:46;15.60;99.90
32694;DHT22;19084;44.716;10.218;2022-10-22T05:02:18;15.70;99.90
32694;DHT22;19084;44.716;10.218;2022-10-22T05:04:51;15.70;99.90
32694;DHT22;19084;44.716;10.218;2022-10-22T05:07:24;15.70;99.90
32694;DHT22;19084;44.716;10.218;2022-10-22T05:09:56;15.70;99.90
32694;DHT22;19084;44.716;10.218;2022-10-22T05:12:29;15.70;99.90
32694;DHT22;19084;44.716;10.218;2022-10-22T05:15:02;15.70;99.90
32694;DHT22;19084;44.716;10.218;2022-10-22T05:17:35;15.70;99.90
32694;DHT22;19084;44.716;10.218;2022-10-22T05:20:09;15.70;99.90
32694;DHT22;19084;44.716;10.218;2022-10-22T05:22:42;15.70;99.90
32694;DHT22;19084;44.716;10.218;2022-10-22T05:25:14;15.70;99.90
32694;DHT22;19084;44.716;10.218;2022-10-22T05:27:48;15.80;99.90
32694;DHT22;19084;44.716;10.218;2022-10-22T05:30:21;15.80;99.90
32694;DHT22;19084;44.716;10.218;2022-10-22T05:32:54;15.80;99.90
32694;DHT22;19084;44.716;10.218;2022-10-22T05:35:26;15.80;99.90
32694;DHT22;19084;44.716;10.218;2022-10-22T05:37:59;15.80;99.90
32694;DHT22;19084;44.716;10.218;2022-10-22T05:40:31;15.80;99.90
32694;DHT22;19084;44.716;10.218;2022-10-22T05:43:04;15.90;99.90
32694;DHT22;19084;44.716;10.218;2022-10-22T05:45:39;15.90;99.90
32694;DHT22;19084;44.716;10.218;2022-10-22T05:48:12;15.90;99.90
32694;DHT22;19084;44.716;10.218;2022-10-22T05:50:45;15.90;99.90
32694;DHT22;19084;44.716;10.218;2022-10-22T05:53:21;16.00;99.90
32694;DHT22;19084;44.716;10.218;2022-10-22T05:55:54;15.90;99.90
32694;DHT22;19084;44.716;10.218;2022-10-22T05:58:27;16.00;99.90
32694;DHT22;19084;44.716;10.218;2022-10-22T06:01:03;16.00;99.90
32694;DHT22;19084;44.716;10.218;2022-10-22T06:03:37;16.00;99.90
32694;DHT22;19084;44.716;10.218;2022-10-22T06:06:19;16.10;99.90
32694;DHT22;19084;44.716;10.218;2022-10-22T06:08:54;16.10;99.90
32694;DHT22;19084;44.716;10.218;2022-10-22T06:11:27;16.10;99.90
32694;DHT22;19084;44.716;10.218;2022-10-22T06:14:05;16.10;99.90
32694;DHT22;19084;44.716;10.218;2022-10-22T06:16:39;16.20;99.90
32694;DHT22;19084;44.716;10.218;2022-10-22T06:19:16;16.20;99.90
32694;DHT22;19084;44.716;10.218;2022-10-22T06:21:49;16.20;99.90
32694;DHT22;19084;44.716;10.218;2022-10-22T06:24:21;16.20;99.90
32694;DHT22;19084;44.716;10.218;2022-10-22T06:26:54;16.20;99.90
32694;DHT22;19084;44.716;10.218;2022-10-22T06:29:26;16.30;99.90
32694;DHT22;19084;44.716;10.218;2022-10-22T06:31:59;16.40;99.90
32694;DHT22;19084;44.716;10.218;2022-10-22T06:34:33;16.40;99.90
32694;DHT22;19084;44.716;10.218;2022-10-22T06:37:06;16.60;99.90
32694;DHT22;19084;44.716;10.218;2022-10-22T06:39:40;17.00;99.90
32694;DHT22;19084;44.716;10.218;2022-10-22T06:42:12;17.40;99.90
32694;DHT22;19084;44.716;10.218;2022-10-22T06:44:45;17.50;99.90
32694;DHT22;19084;44.716;10.218;2022-10-22T06:47:18;17.60;99.90
32694;DHT22;19084;44.716;10.218;2022-10-22T06:49:51;17.60;99.90
32694;DHT22;19084;44.716;10.218;2022-10-22T06:52:23;17.80;99.90
32694;DHT22;19084;44.716;10.218;2022-10-22T06:54:56;18.00;99.90
32694;DHT22;19084;44.716;10.218;2022-10-22T06:57:31;18.10;99.90
32694;DHT22;19084;44.716;10.218;2022-10-22T07:00:06;18.20;99.90
32694;DHT22;19084;44.716;10.218;2022-10-22T07:02:39;18.30;99.90
32694;DHT22;19084;44.716;10.218;2022-10-22T07:05:12;18.40;99.90
32694;DHT22;19084;44.716;10.218;2022-10-22T07:07:44;18.40;99.90
32694;DHT22;19084;44.716;10.218;2022-10-22T07:10:18;18.60;99.90
32694;DHT22;19084;44.716;10.218;2022-10-22T07:12:51;18.70;99.90
32694;DHT22;19084;44.716;10.218;2022-10-22T07:15:24;18.70;99.90
32694;DHT22;19084;44.716;10.218;2022-10-22T07:17:56;18.80;99.90
32694;DHT22;19084;44.716;10.218;2022-10-22T07:20:29;18.80;99.90
32694;DHT22;19084;44.716;10.218;2022-10-22T07:23:02;18.80;99.90
32694;DHT22;19084;44.716;10.218;2022-10-22T07:25:34;18.90;99.90
32694;DHT22;19084;44.716;10.218;2022-10-22T07:28:07;18.90;99.90
32694;DHT22;19084;44.716;10.218;2022-10-22T07:30:40;19.00;99.90
32694;DHT22;19084;44.716;10.218;2022-10-22T07:33:12;19.00;99.90
32694;DHT22;19084;44.716;10.218;2022-10-22T07:35:45;19.20;99.90
32694;DHT22;19084;44.716;10.218;2022-10-22T07:38:18;19.30;99.90
32694;DHT22;19084;44.716;10.218;2022-10-22T07:40:51;19.30;99.90
32694;DHT22;19084;44.716;10.218;2022-10-22T07:43:23;19.30;99.90
32694;DHT22;19084;44.716;10.218;2022-10-22T07:45:56;19.40;99.90
32694;DHT22;19084;44.716;10.218;2022-10-22T07:48:29;19.50;99.90
32694;DHT22;19084;44.716;10.218;2022-10-22T07:51:02;19.60;99.90
32694;DHT22;19084;44.716;10.218;2022-10-22T07:53:35;19.60;99.90
32694;DHT22;19084;44.716;10.218;2022-10-22T07:56:08;19.70;99.90
32694;DHT22;19084;44.716;10.218;2022-10-22T07:58:41;19.80;99.90
32694;DHT22;19084;44.716;10.218;2022-10-22T08:01:13;19.90;99.90
32694;DHT22;19084;44.716;10.218;2022-10-22T08:03:46;20.00;99.90
32694;DHT22;19084;44.716;10.218;2022-10-22T08:06:20;20.20;99.90
32694;DHT22;19084;44.716;10.218;2022-10-22T08:08:53;20.30;99.90
32694;DHT22;19084;44.716;10.218;2022-10-22T08:11:26;20.50;99.90
32694;DHT22;19084;44.716;10.218;2022-10-22T08:13:58;20.70;99.90
32694;DHT22;19084;44.716;10.218;2022-10-22T08:16:31;20.80;99.90
32694;DHT22;19084;44.716;10.218;2022-10-22T08:19:04;20.80;99.90
32694;DHT22;19084;44.716;10.218;2022-10-22T08:21:36;20.80;99.90
32694;DHT22;19084;44.716;10.218;2022-10-22T08:24:09;20.80;99.90
32694;DHT22;19084;44.716;10.218;2022-10-22T08:26:41;20.70;99.90
32694;DHT22;19084;44.716;10.218;2022-10-22T08:29:14;20.60;99.90
32694;DHT22;19084;44.716;10.218;2022-10-22T08:31:47;20.60;99.90
32694;DHT22;19084;44.716;10.218;2022-10-22T08:34:19;20.50;99.90
32694;DHT22;19084;44.716;10.218;2022-10-22T08:36:52;20.60;99.90
32694;DHT22;19084;44.716;10.218;2022-10-22T08:39:25;20.60;99.90
32694;DHT22;19084;44.716;10.218;2022-10-22T08:44:47;20.40;99.90
32694;DHT22;19084;44.716;10.218;2022-10-22T08:50:01;20.20;99.90
32694;DHT22;19084;44.716;10.218;2022-10-22T08:52:34;20.20;99.90
32694;DHT22;19084;44.716;10.218;2022-10-22T08:55:13;20.20;99.90
32694;DHT22;19084;44.716;10.218;2022-10-22T08:57:50;20.20;99.90
32694;DHT22;19084;44.716;10.218;2022-10-22T09:00:40;20.20;99.90
32694;DHT22;19084;44.716;10.218;2022-10-22T09:03:39;20.30;99.90
32694;DHT22;19084;44.716;10.218;2022-10-22T09:06:23;20.50;99.90
32694;DHT22;19084;44.716;10.218;2022-10-22T09:08:58;20.50;99.90
32694;DHT22;19084;44.716;10.218;2022-10-22T09:11:35;20.50;99.90
32694;DHT22;19084;44.716;10.218;2022-10-22T09:14:14;20.60;99.90
32694;DHT22;19084;44.716;10.218;2022-10-22T09:25:16;20.80;99.90
32694;DHT22;19084;44.716;10.218;2022-10-22T09:27:51;20.90;99.90
32694;DHT22;19084;44.716;10.218;2022-10-22T09:30:28;21.00;99.90
32694;DHT22;19084;44.716;10.218;2022-10-22T09:35:47;21.20;99.90
32694;DHT22;19084;44.716;10.218;2022-10-22T09:38:26;21.30;99.90
32694;DHT22;19084;44.716;10.218;2022-10-22T09:41:00;21.30;99.90
32694;DHT22;19084;44.716;10.218;2022-10-22T09:43:35;21.30;99.90
32694;DHT22;19084;44.716;10.218;2022-10-22T09:46:16;21.30;99.90
32694;DHT22;19084;44.716;10.218;2022-10-22T09:54:40;21.10;99.90
32694;DHT22;19084;44.716;10.218;2022-10-22T09:57:17;21.00;99.90
32694;DHT22;19084;44.716;10.218;2022-10-22T09:59:53;21.00;99.90
32694;DHT22;19084;44.716;10.218;2022-10-22T10:02:28;21.00;99.90
32694;DHT22;19084;44.716;10.218;2022-10-22T10:05:19;20.90;99.90
32694;DHT22;19084;44.716;10.218;2022-10-22T10:07:52;20.90;99.90
32694;DHT22;19084;44.716;10.218;2022-10-22T10:10:33;20.90;99.90
32694;DHT22;19084;44.716;10.218;2022-10-22T10:16:12;21.00;99.90
32694;DHT22;19084;44.716;10.218;2022-10-22T10:24:47;21.30;99.90
32694;DHT22;19084;44.716;10.218;2022-10-22T10:27:31;21.30;99.90
32694;DHT22;19084;44.716;10.218;2022-10-22T10:30:19;21.40;99.90
32694;DHT22;19084;44.716;10.218;2022-10-22T10:35:43;21.70;99.90
32694;DHT22;19084;44.716;10.218;2022-10-22T10:46:23;21.90;99.90
32694;DHT22;19084;44.716;10.218;2022-10-22T10:49:08;22.00;99.90
32694;DHT22;19084;44.716;10.218;2022-10-22T11:05:38;22.20;99.90
32694;DHT22;19084;44.716;10.218;2022-10-22T11:08:16;22.30;99.90
32694;DHT22;19084;44.716;10.218;2022-10-22T11:10:58;22.40;99.90
32694;DHT22;19084;44.716;10.218;2022-10-22T11:16:39;22.10;99.90
32694;DHT22;19084;44.716;10.218;2022-10-22T11:22:40;21.90;99.90
32694;DHT22;19084;44.716;10.218;2022-10-22T11:25:41;21.80;99.90
32694;DHT22;19084;44.716;10.218;2022-10-22T11:28:32;21.70;99.90
32694;DHT22;19084;44.716;10.218;2022-10-22T11:31:12;21.70;99.90
32694;DHT22;19084;44.716;10.218;2022-10-22T11:36:53;21.60;99.90
32694;DHT22;19084;44.716;10.218;2022-10-22T11:39:37;21.60;99.90
32694;DHT22;19084;44.716;10.218;2022-10-22T11:42:18;21.60;99.90
32694;DHT22;19084;44.716;10.218;2022-10-22T11:47:52;21.70;99.90
32694;DHT22;19084;44.716;10.218;2022-10-22T11:53:29;21.60;99.90
32694;DHT22;19084;44.716;10.218;2022-10-22T12:01:21;21.60;99.90
32694;DHT22;19084;44.716;10.218;2022-10-22T12:06:51;21.60;99.90
32694;DHT22;19084;44.716;10.218;2022-10-22T12:09:28;21.60;99.90
32694;DHT22;19084;44.716;10.218;2022-10-22T12:12:11;21.50;99.90
32694;DHT22;19084;44.716;10.218;2022-10-22T12:14:55;21.50;99.90
32694;DHT22;19084;44.716;10.218;2022-10-22T12:17:29;21.40;99.90
32694;DHT22;19084;44.716;10.218;2022-10-22T12:20:18;21.40;99.90
32694;DHT22;19084;44.716;10.218;2022-10-22T12:22:51;21.40;99.90
32694;DHT22;19084;44.716;10.218;2022-10-22T12:25:28;21.40;99.90
32694;DHT22;19084;44.716;10.218;2022-10-22T12:28:10;21.50;99.90
32694;DHT22;19084;44.716;10.218;2022-10-22T12:30:43;21.40;99.90
32694;DHT22;19084;44.716;10.218;2022-10-22T12:33:20;21.50;99.90
32694;DHT22;19084;44.716;10.218;2022-10-22T12:35:54;21.50;99.90
32694;DHT22;19084;44.716;10.218;2022-10-22T12:38:29;21.60;99.90
32694;DHT22;19084;44.716;10.218;2022-10-22T12:41:02;21.60;99.90
32694;DHT22;19084;44.716;10.218;2022-10-22T12:43:36;21.60;99.90
32694;DHT22;19084;44.716;10.218;2022-10-22T12:46:11;21.60;99.90
32694;DHT22;19084;44.716;10.218;2022-10-22T12:48:45;21.60;99.90
32694;DHT22;19084;44.716;10.218;2022-10-22T12:51:19;21.60;99.90
32694;DHT22;19084;44.716;10.218;2022-10-22T12:53:54;21.60;99.90
32694;DHT22;19084;44.716;10.218;2022-10-22T12:56:31;21.50;99.90
32694;DHT22;19084;44.716;10.218;2022-10-22T13:01:59;21.60;99.90
32694;DHT22;19084;44.716;10.218;2022-10-22T13:04:34;21.60;99.90
32694;DHT22;19084;44.716;10.218;2022-10-22T13:07:15;21.60;99.90
32694;DHT22;19084;44.716;10.218;2022-10-22T13:09:58;21.60;99.90
32694;DHT22;19084;44.716;10.218;2022-10-22T13:12:35;21.70;99.90
32694;DHT22;19084;44.716;10.218;2022-10-22T13:20:57;21.60;99.90
32694;DHT22;19084;44.716;10.218;2022-10-22T13:23:33;21.60;99.90
32694;DHT22;19084;44.716;10.218;2022-10-22T13:26:15;21.60;99.90
32694;DHT22;19084;44.716;10.218;2022-10-22T13:28:50;21.50;99.90
32694;DHT22;19084;44.716;10.218;2022-10-22T13:31:27;21.50;99.90
32694;DHT22;19084;44.716;10.218;2022-10-22T13:34:02;21.50;99.90
32694;DHT22;19084;44.716;10.218;2022-10-22T13:36:42;21.40;99.90
32694;DHT22;19084;44.716;10.218;2022-10-22T13:39:21;21.50;99.90
32694;DHT22;19084;44.716;10.218;2022-10-22T13:41:54;21.40;99.90
32694;DHT22;19084;44.716;10.218;2022-10-22T13:44:27;21.50;99.90
32694;DHT22;19084;44.716;10.218;2022-10-22T13:46:59;21.40;99.90
32694;DHT22;19084;44.716;10.218;2022-10-22T13:49:32;21.50;99.90
32694;DHT22;19084;44.716;10.218;2022-10-22T13:52:05;21.40;99.90
32694;DHT22;19084;44.716;10.218;2022-10-22T13:54:37;21.50;99.90
32694;DHT22;19084;44.716;10.218;2022-10-22T13:57:10;21.50;99.90
32694;DHT22;19084;44.716;10.218;2022-10-22T13:59:43;21.50;99.90
32694;DHT22;19084;44.716;10.218;2022-10-22T14:02:15;21.50;99.90
32694;DHT22;19084;44.716;10.218;2022-10-22T14:04:50;21.50;99.90
32694;DHT22;19084;44.716;10.218;2022-10-22T14:07:22;21.40;99.90
32694;DHT22;19084;44.716;10.218;2022-10-22T14:09:55;21.40;99.90
32694;DHT22;19084;44.716;10.218;2022-10-22T14:12:28;21.40;99.90
32694;DHT22;19084;44.716;10.218;2022-10-22T14:15:00;21.40;99.90
32694;DHT22;19084;44.716;10.218;2022-10-22T14:17:33;21.40;99.90
32694;DHT22;19084;44.716;10.218;2022-10-22T14:20:08;21.40;99.90
32694;DHT22;19084;44.716;10.218;2022-10-22T14:22:42;21.30;99.90
32694;DHT22;19084;44.716;10.218;2022-10-22T14:25:16;21.30;99.90
32694;DHT22;19084;44.716;10.218;2022-10-22T14:27:49;21.30;99.90
32694;DHT22;19084;44.716;10.218;2022-10-22T14:30:23;21.20;99.90
32694;DHT22;19084;44.716;10.218;2022-10-22T14:32:57;21.20;99.90
32694;DHT22;19084;44.716;10.218;2022-10-22T14:35:29;21.20;99.90
32694;DHT22;19084;44.716;10.218;2022-10-22T14:38:02;21.10;99.90
32694;DHT22;19084;44.716;10.218;2022-10-22T14:40:35;21.10;99.90
32694;DHT22;19084;44.716;10.218;2022-10-22T14:43:17;21.10;99.90
32694;DHT22;19084;44.716;10.218;2022-10-22T14:45:50;21.10;99.90
32694;DHT22;19084;44.716;10.218;2022-10-22T14:48:23;21.10;99.90
32694;DHT22;19084;44.716;10.218;2022-10-22T14:50:56;21.10;99.90
32694;DHT22;19084;44.716;10.218;2022-10-22T14:53:28;21.10;99.90
32694;DHT22;19084;44.716;10.218;2022-10-22T14:56:01;21.00;99.90
32694;DHT22;19084;44.716;10.218;2022-10-22T14:58:34;21.10;99.90
32694;DHT22;19084;44.716;10.218;2022-10-22T15:01:07;21.10;99.90
32694;DHT22;19084;44.716;10.218;2022-10-22T15:03:40;21.00;99.90
32694;DHT22;19084;44.716;10.218;2022-10-22T15:06:12;21.00;99.90
32694;DHT22;19084;44.716;10.218;2022-10-22T15:08:45;21.00;99.90
32694;DHT22;19084;44.716;10.218;2022-10-22T15:11:18;20.90;99.90
32694;DHT22;19084;44.716;10.218;2022-10-22T15:13:51;20.90;99.90
32694;DHT22;19084;44.716;10.218;2022-10-22T15:16:23;20.90;99.90
32694;DHT22;19084;44.716;10.218;2022-10-22T15:18:57;20.80;99.90
32694;DHT22;19084;44.716;10.218;2022-10-22T15:21:31;20.80;99.90
32694;DHT22;19084;44.716;10.218;2022-10-22T15:24:04;20.80;99.90
32694;DHT22;19084;44.716;10.218;2022-10-22T15:26:36;20.80;99.90
32694;DHT22;19084;44.716;10.218;2022-10-22T15:29:09;20.80;99.90
32694;DHT22;19084;44.716;10.218;2022-10-22T15:34:21;20.70;99.90
32694;DHT22;19084;44.716;10.218;2022-10-22T15:36:56;20.70;99.90
32694;DHT22;19084;44.716;10.218;2022-10-22T15:39:30;20.70;99.90
32694;DHT22;19084;44.716;10.218;2022-10-22T15:42:03;20.70;99.90
32694;DHT22;19084;44.716;10.218;2022-10-22T15:44:36;20.60;99.90
32694;DHT22;19084;44.716;10.218;2022-10-22T15:47:11;20.60;99.90
32694;DHT22;19084;44.716;10.218;2022-10-22T15:49:44;20.60;99.90
32694;DHT22;19084;44.716;10.218;2022-10-22T15:52:17;20.50;99.90
32694;DHT22;19084;44.716;10.218;2022-10-22T15:54:49;20.50;99.90
32694;DHT22;19084;44.716;10.218;2022-10-22T15:57:22;20.50;99.90
32694;DHT22;19084;44.716;10.218;2022-10-22T15:59:55;20.50;99.90
32694;DHT22;19084;44.716;10.218;2022-10-22T16:02:27;20.40;99.90
32694;DHT22;19084;44.716;10.218;2022-10-22T16:05:00;20.40;99.90
32694;DHT22;19084;44.716;10.218;2022-10-22T16:07:33;20.40;99.90
32694;DHT22;19084;44.716;10.218;2022-10-22T16:10:07;20.40;99.90
32694;DHT22;19084;44.716;10.218;2022-10-22T16:12:44;20.40;99.90
32694;DHT22;19084;44.716;10.218;2022-10-22T16:15:16;20.30;99.90
32694;DHT22;19084;44.716;10.218;2022-10-22T16:17:50;20.30;99.90
32694;DHT22;19084;44.716;10.218;2022-10-22T16:20:24;20.20;99.90
32694;DHT22;19084;44.716;10.218;2022-10-22T16:22:57;20.20;99.90
32694;DHT22;19084;44.716;10.218;2022-10-22T16:25:36;20.10;99.90
32694;DHT22;19084;44.716;10.218;2022-10-22T16:28:10;20.10;99.90
32694;DHT22;19084;44.716;10.218;2022-10-22T16:30:44;20.10;99.90
32694;DHT22;19084;44.716;10.218;2022-10-22T16:33:17;20.10;99.90
32694;DHT22;19084;44.716;10.218;2022-10-22T16:35:50;20.00;99.90
32694;DHT22;19084;44.716;10.218;2022-10-22T16:38:23;20.00;99.90
32694;DHT22;19084;44.716;10.218;2022-10-22T16:41:12;20.00;99.90
32694;DHT22;19084;44.716;10.218;2022-10-22T16:43:47;19.90;99.90
32694;DHT22;19084;44.716;10.218;2022-10-22T16:46:21;19.90;99.90
32694;DHT22;19084;44.716;10.218;2022-10-22T16:48:54;19.90;99.90
32694;DHT22;19084;44.716;10.218;2022-10-22T16:51:27;19.90;99.90
32694;DHT22;19084;44.716;10.218;2022-10-22T16:54:01;19.80;99.90
32694;DHT22;19084;44.716;10.218;2022-10-22T16:56:40;19.80;99.90
32694;DHT22;19084;44.716;10.218;2022-10-22T16:59:13;19.80;99.90
32694;DHT22;19084;44.716;10.218;2022-10-22T17:01:45;19.80;99.90
32694;DHT22;19084;44.716;10.218;2022-10-22T17:04:18;19.70;99.90
32694;DHT22;19084;44.716;10.218;2022-10-22T17:06:50;19.70;99.90
32694;DHT22;19084;44.716;10.218;2022-10-22T17:09:23;19.60;99.90
32694;DHT22;19084;44.716;10.218;2022-10-22T17:11:56;19.60;99.90
32694;DHT22;19084;44.716;10.218;2022-10-22T17:14:29;19.50;99.90
32694;DHT22;19084;44.716;10.218;2022-10-22T17:17:01;19.50;99.90
32694;DHT22;19084;44.716;10.218;2022-10-22T17:19:34;19.50;99.90
32694;DHT22;19084;44.716;10.218;2022-10-22T17:22:09;19.40;99.90
32694;DHT22;19084;44.716;10.218;2022-10-22T17:27:53;19.30;99.90
32694;DHT22;19084;44.716;10.218;2022-10-22T17:30:25;19.30;99.90
32694;DHT22;19084;44.716;10.218;2022-10-22T17:32:59;19.20;99.90
32694;DHT22;19084;44.716;10.218;2022-10-22T17:35:33;19.20;99.90
32694;DHT22;19084;44.716;10.218;2022-10-22T17:38:06;19.10;99.90
32694;DHT22;19084;44.716;10.218;2022-10-22T17:40:39;19.00;99.90
32694;DHT22;19084;44.716;10.218;2022-10-22T17:43:12;19.00;99.90
32694;DHT22;19084;44.716;10.218;2022-10-22T17:45:44;19.00;99.90
32694;DHT22;19084;44.716;10.218;2022-10-22T17:48:17;19.00;99.90
32694;DHT22;19084;44.716;10.218;2022-10-22T17:50:50;18.90;99.90
32694;DHT22;19084;44.716;10.218;2022-10-22T17:53:26;18.90;99.90
32694;DHT22;19084;44.716;10.218;2022-10-22T17:56:00;18.90;99.90